METAR Formatted Surface Weather Observation
Issued by NWS

Home | Current Version | Previous Version | Text Only | Print | Product List | Glossary On
Versions: 1 2
000
SAUS46 KPQR 210357
MTRNUW
METAR KNUW 210356Z 08005KT 10SM FEW050 SCT065 OVC080 08/01 A2919 RMK
AO2 SLP884 T00830011 $



USA.gov is the U.S. government's official web portal to all federal, state and local government web resources and services.